sensor_id;sensor_type;location;lat;lon;timestamp;P1;durP1;ratioP1;P2;durP2;ratioP2
62903;SDS011;49000;50.698;13.322;2023-10-08T00:01:14;6.30;;;3.50;;
62903;SDS011;49000;50.698;13.322;2023-10-08T00:03:41;6.87;;;3.47;;
62903;SDS011;49000;50.698;13.322;2023-10-08T00:06:13;8.47;;;3.20;;
62903;SDS011;49000;50.698;13.322;2023-10-08T00:08:39;6.20;;;3.43;;
62903;SDS011;49000;50.698;13.322;2023-10-08T00:11:05;6.57;;;3.47;;
62903;SDS011;49000;50.698;13.322;2023-10-08T00:13:31;6.93;;;3.50;;
62903;SDS011;49000;50.698;13.322;2023-10-08T00:16:04;6.23;;;3.87;;
62903;SDS011;49000;50.698;13.322;2023-10-08T00:18:34;7.37;;;3.53;;
62903;SDS011;49000;50.698;13.322;2023-10-08T00:21:00;6.13;;;3.63;;
62903;SDS011;49000;50.698;13.322;2023-10-08T00:23:37;8.23;;;3.47;;
62903;SDS011;49000;50.698;13.322;2023-10-08T00:26:07;7.63;;;3.70;;
62903;SDS011;49000;50.698;13.322;2023-10-08T00:28:33;7.50;;;3.90;;
62903;SDS011;49000;50.698;13.322;2023-10-08T00:30:58;7.67;;;3.57;;
62903;SDS011;49000;50.698;13.322;2023-10-08T00:33:37;8.40;;;4.17;;
62903;SDS011;49000;50.698;13.322;2023-10-08T00:36:04;6.10;;;3.90;;
62903;SDS011;49000;50.698;13.322;2023-10-08T00:38:45;6.50;;;3.93;;
62903;SDS011;49000;50.698;13.322;2023-10-08T00:41:24;8.37;;;3.73;;
62903;SDS011;49000;50.698;13.322;2023-10-08T00:43:54;5.93;;;3.20;;
62903;SDS011;49000;50.698;13.322;2023-10-08T00:46:22;7.43;;;3.90;;
62903;SDS011;49000;50.698;13.322;2023-10-08T00:48:49;8.00;;;4.20;;
62903;SDS011;49000;50.698;13.322;2023-10-08T00:51:24;8.53;;;3.90;;
62903;SDS011;49000;50.698;13.322;2023-10-08T00:53:54;9.10;;;4.20;;
62903;SDS011;49000;50.698;13.322;2023-10-08T00:56:35;9.33;;;4.13;;
62903;SDS011;49000;50.698;13.322;2023-10-08T00:59:20;8.80;;;3.90;;
62903;SDS011;49000;50.698;13.322;2023-10-08T01:01:46;8.60;;;3.73;;
62903;SDS011;49000;50.698;13.322;2023-10-08T01:04:20;7.07;;;4.00;;
62903;SDS011;49000;50.698;13.322;2023-10-08T01:06:51;6.87;;;3.70;;
62903;SDS011;49000;50.698;13.322;2023-10-08T01:09:21;11.53;;;4.53;;
62903;SDS011;49000;50.698;13.322;2023-10-08T01:12:29;8.73;;;3.67;;
62903;SDS011;49000;50.698;13.322;2023-10-08T01:14:48;9.13;;;4.10;;
62903;SDS011;49000;50.698;13.322;2023-10-08T01:17:15;8.67;;;4.13;;
62903;SDS011;49000;50.698;13.322;2023-10-08T01:19:44;6.40;;;4.00;;
62903;SDS011;49000;50.698;13.322;2023-10-08T01:22:15;9.93;;;4.37;;
62903;SDS011;49000;50.698;13.322;2023-10-08T01:24:44;7.10;;;3.60;;
62903;SDS011;49000;50.698;13.322;2023-10-08T01:27:14;7.73;;;3.80;;
62903;SDS011;49000;50.698;13.322;2023-10-08T01:29:45;8.00;;;4.60;;
62903;SDS011;49000;50.698;13.322;2023-10-08T01:32:11;7.53;;;3.40;;
62903;SDS011;49000;50.698;13.322;2023-10-08T01:34:41;8.30;;;4.50;;
62903;SDS011;49000;50.698;13.322;2023-10-08T01:37:10;9.90;;;4.20;;
62903;SDS011;49000;50.698;13.322;2023-10-08T01:39:42;10.40;;;3.90;;
62903;SDS011;49000;50.698;13.322;2023-10-08T01:42:08;8.03;;;3.97;;
62903;SDS011;49000;50.698;13.322;2023-10-08T01:44:44;9.30;;;4.10;;
62903;SDS011;49000;50.698;13.322;2023-10-08T01:47:11;9.33;;;4.07;;
62903;SDS011;49000;50.698;13.322;2023-10-08T01:49:37;8.60;;;4.20;;
62903;SDS011;49000;50.698;13.322;2023-10-08T01:52:04;9.60;;;4.47;;
62903;SDS011;49000;50.698;13.322;2023-10-08T01:54:32;10.47;;;4.20;;
62903;SDS011;49000;50.698;13.322;2023-10-08T01:57:00;6.10;;;3.70;;
62903;SDS011;49000;50.698;13.322;2023-10-08T01:59:26;9.33;;;4.10;;
62903;SDS011;49000;50.698;13.322;2023-10-08T02:01:52;9.37;;;4.80;;
62903;SDS011;49000;50.698;13.322;2023-10-08T02:04:21;9.33;;;3.77;;
62903;SDS011;49000;50.698;13.322;2023-10-08T02:06:46;9.77;;;4.17;;
62903;SDS011;49000;50.698;13.322;2023-10-08T02:09:12;8.97;;;4.60;;
62903;SDS011;49000;50.698;13.322;2023-10-08T02:11:46;10.17;;;4.30;;
62903;SDS011;49000;50.698;13.322;2023-10-08T02:14:16;8.70;;;4.97;;
62903;SDS011;49000;50.698;13.322;2023-10-08T02:16:42;7.43;;;4.70;;
62903;SDS011;49000;50.698;13.322;2023-10-08T02:19:09;9.57;;;4.93;;
62903;SDS011;49000;50.698;13.322;2023-10-08T02:21:35;11.50;;;5.00;;
62903;SDS011;49000;50.698;13.322;2023-10-08T02:24:05;10.33;;;6.10;;
62903;SDS011;49000;50.698;13.322;2023-10-08T02:26:32;9.90;;;4.80;;
62903;SDS011;49000;50.698;13.322;2023-10-08T02:28:59;9.57;;;5.70;;
62903;SDS011;49000;50.698;13.322;2023-10-08T02:31:37;10.63;;;5.03;;
62903;SDS011;49000;50.698;13.322;2023-10-08T02:34:04;7.60;;;4.73;;
62903;SDS011;49000;50.698;13.322;2023-10-08T02:36:34;10.53;;;6.60;;
62903;SDS011;49000;50.698;13.322;2023-10-08T02:39:01;9.30;;;5.50;;
62903;SDS011;49000;50.698;13.322;2023-10-08T02:41:52;9.57;;;5.60;;
62903;SDS011;49000;50.698;13.322;2023-10-08T02:44:23;12.43;;;5.40;;
62903;SDS011;49000;50.698;13.322;2023-10-08T02:46:49;8.70;;;5.27;;
62903;SDS011;49000;50.698;13.322;2023-10-08T02:49:19;9.37;;;5.10;;
62903;SDS011;49000;50.698;13.322;2023-10-08T02:51:50;11.63;;;5.20;;
62903;SDS011;49000;50.698;13.322;2023-10-08T02:54:17;9.17;;;4.87;;
62903;SDS011;49000;50.698;13.322;2023-10-08T02:56:47;7.70;;;5.20;;
62903;SDS011;49000;50.698;13.322;2023-10-08T02:59:16;10.40;;;5.33;;
62903;SDS011;49000;50.698;13.322;2023-10-08T03:01:47;10.03;;;5.73;;
62903;SDS011;49000;50.698;13.322;2023-10-08T03:04:21;11.13;;;5.07;;
62903;SDS011;49000;50.698;13.322;2023-10-08T03:06:48;11.23;;;5.70;;
62903;SDS011;49000;50.698;13.322;2023-10-08T03:09:15;10.53;;;5.90;;
62903;SDS011;49000;50.698;13.322;2023-10-08T03:11:50;10.40;;;5.57;;
62903;SDS011;49000;50.698;13.322;2023-10-08T03:14:16;12.47;;;5.93;;
62903;SDS011;49000;50.698;13.322;2023-10-08T03:16:49;8.93;;;5.40;;
62903;SDS011;49000;50.698;13.322;2023-10-08T03:19:16;11.37;;;5.67;;
62903;SDS011;49000;50.698;13.322;2023-10-08T03:21:45;9.13;;;5.53;;
62903;SDS011;49000;50.698;13.322;2023-10-08T03:24:16;11.60;;;6.50;;
62903;SDS011;49000;50.698;13.322;2023-10-08T03:26:55;10.83;;;5.50;;
62903;SDS011;49000;50.698;13.322;2023-10-08T03:29:30;12.13;;;6.00;;
62903;SDS011;49000;50.698;13.322;2023-10-08T03:31:57;12.67;;;6.80;;
62903;SDS011;49000;50.698;13.322;2023-10-08T03:34:22;12.10;;;6.53;;
62903;SDS011;49000;50.698;13.322;2023-10-08T03:36:52;6.90;;;4.90;;
62903;SDS011;49000;50.698;13.322;2023-10-08T03:39:24;5.30;;;3.87;;
62903;SDS011;49000;50.698;13.322;2023-10-08T03:42:06;2.70;;;1.93;;
62903;SDS011;49000;50.698;13.322;2023-10-08T03:44:34;2.07;;;1.60;;
62903;SDS011;49000;50.698;13.322;2023-10-08T03:47:02;1.03;;;0.80;;
62903;SDS011;49000;50.698;13.322;2023-10-08T03:49:35;2.57;;;0.50;;
62903;SDS011;49000;50.698;13.322;2023-10-08T03:52:06;0.40;;;0.23;;
62903;SDS011;49000;50.698;13.322;2023-10-08T03:54:32;0.43;;;0.30;;
62903;SDS011;49000;50.698;13.322;2023-10-08T03:57:01;0.20;;;0.20;;
62903;SDS011;49000;50.698;13.322;2023-10-08T03:59:29;0.00;;;0.00;;
62903;SDS011;49000;50.698;13.322;2023-10-08T04:01:54;0.10;;;0.10;;
62903;SDS011;49000;50.698;13.322;2023-10-08T04:04:24;0.10;;;0.10;;
62903;SDS011;49000;50.698;13.322;2023-10-08T04:07:13;0.00;;;0.00;;
62903;SDS011;49000;50.698;13.322;2023-10-08T04:10:09;0.80;;;0.07;;
62903;SDS011;49000;50.698;13.322;2023-10-08T04:12:35;0.00;;;0.00;;
62903;SDS011;49000;50.698;13.322;2023-10-08T04:15:06;0.00;;;0.00;;
62903;SDS011;49000;50.698;13.322;2023-10-08T04:17:35;0.10;;;0.00;;
62903;SDS011;49000;50.698;13.322;2023-10-08T04:20:10;0.00;;;0.00;;
62903;SDS011;49000;50.698;13.322;2023-10-08T04:22:55;0.00;;;0.00;;
62903;SDS011;49000;50.698;13.322;2023-10-08T04:25:21;0.20;;;0.20;;
62903;SDS011;49000;50.698;13.322;2023-10-08T04:27:46;0.10;;;0.10;;
62903;SDS011;49000;50.698;13.322;2023-10-08T04:30:14;0.30;;;0.30;;
62903;SDS011;49000;50.698;13.322;2023-10-08T04:32:40;0.27;;;0.13;;
62903;SDS011;49000;50.698;13.322;2023-10-08T04:35:06;0.10;;;0.10;;
62903;SDS011;49000;50.698;13.322;2023-10-08T04:37:39;0.50;;;0.50;;
62903;SDS011;49000;50.698;13.322;2023-10-08T04:40:06;0.40;;;0.30;;
62903;SDS011;49000;50.698;13.322;2023-10-08T04:42:40;0.10;;;0.10;;
62903;SDS011;49000;50.698;13.322;2023-10-08T04:45:09;0.23;;;0.10;;
62903;SDS011;49000;50.698;13.322;2023-10-08T04:47:38;0.20;;;0.10;;
62903;SDS011;49000;50.698;13.322;2023-10-08T04:50:09;0.20;;;0.13;;
62903;SDS011;49000;50.698;13.322;2023-10-08T04:52:41;0.20;;;0.10;;
62903;SDS011;49000;50.698;13.322;2023-10-08T04:55:23;0.10;;;0.10;;
62903;SDS011;49000;50.698;13.322;2023-10-08T04:57:54;0.00;;;0.00;;
62903;SDS011;49000;50.698;13.322;2023-10-08T05:00:20;0.10;;;0.10;;
62903;SDS011;49000;50.698;13.322;2023-10-08T05:03:06;0.43;;;0.10;;
62903;SDS011;49000;50.698;13.322;2023-10-08T05:05:41;0.30;;;0.30;;
62903;SDS011;49000;50.698;13.322;2023-10-08T05:08:26;0.10;;;0.10;;
62903;SDS011;49000;50.698;13.322;2023-10-08T05:11:09;0.10;;;0.10;;
62903;SDS011;49000;50.698;13.322;2023-10-08T05:13:49;0.20;;;0.20;;
62903;SDS011;49000;50.698;13.322;2023-10-08T05:16:27;0.50;;;0.40;;
62903;SDS011;49000;50.698;13.322;2023-10-08T05:19:09;0.47;;;0.20;;
62903;SDS011;49000;50.698;13.322;2023-10-08T05:22:11;1.17;;;0.30;;
62903;SDS011;49000;50.698;13.322;2023-10-08T05:25:03;0.83;;;0.13;;
62903;SDS011;49000;50.698;13.322;2023-10-08T05:27:37;0.40;;;0.30;;
62903;SDS011;49000;50.698;13.322;2023-10-08T05:30:13;0.20;;;0.20;;
62903;SDS011;49000;50.698;13.322;2023-10-08T05:32:57;0.30;;;0.30;;
62903;SDS011;49000;50.698;13.322;2023-10-08T05:35:39;0.40;;;0.30;;
62903;SDS011;49000;50.698;13.322;2023-10-08T05:38:05;1.10;;;1.00;;
62903;SDS011;49000;50.698;13.322;2023-10-08T05:40:51;0.30;;;0.30;;
62903;SDS011;49000;50.698;13.322;2023-10-08T05:43:23;0.97;;;0.40;;
62903;SDS011;49000;50.698;13.322;2023-10-08T05:46:04;0.20;;;0.20;;
62903;SDS011;49000;50.698;13.322;2023-10-08T05:48:46;0.40;;;0.30;;
62903;SDS011;49000;50.698;13.322;2023-10-08T05:51:36;2.90;;;1.97;;
62903;SDS011;49000;50.698;13.322;2023-10-08T05:54:19;1.13;;;0.50;;
62903;SDS011;49000;50.698;13.322;2023-10-08T05:57:10;0.47;;;0.40;;
62903;SDS011;49000;50.698;13.322;2023-10-08T05:59:45;0.50;;;0.50;;
62903;SDS011;49000;50.698;13.322;2023-10-08T06:07:52;0.40;;;0.40;;
62903;SDS011;49000;50.698;13.322;2023-10-08T06:10:31;0.23;;;0.23;;
62903;SDS011;49000;50.698;13.322;2023-10-08T06:15:47;0.30;;;0.30;;
62903;SDS011;49000;50.698;13.322;2023-10-08T06:18:21;0.60;;;0.30;;
62903;SDS011;49000;50.698;13.322;2023-10-08T06:20:54;0.50;;;0.33;;
62903;SDS011;49000;50.698;13.322;2023-10-08T06:23:21;0.50;;;0.40;;
62903;SDS011;49000;50.698;13.322;2023-10-08T06:25:50;0.40;;;0.40;;
62903;SDS011;49000;50.698;13.322;2023-10-08T06:28:36;0.50;;;0.33;;
62903;SDS011;49000;50.698;13.322;2023-10-08T06:31:06;0.30;;;0.30;;
62903;SDS011;49000;50.698;13.322;2023-10-08T06:33:36;0.40;;;0.30;;
62903;SDS011;49000;50.698;13.322;2023-10-08T06:36:02;0.50;;;0.50;;
62903;SDS011;49000;50.698;13.322;2023-10-08T06:38:38;0.73;;;0.30;;
62903;SDS011;49000;50.698;13.322;2023-10-08T06:41:08;0.70;;;0.40;;
62903;SDS011;49000;50.698;13.322;2023-10-08T06:43:35;0.30;;;0.30;;
62903;SDS011;49000;50.698;13.322;2023-10-08T06:46:04;0.90;;;0.30;;
62903;SDS011;49000;50.698;13.322;2023-10-08T06:48:33;0.17;;;0.17;;
62903;SDS011;49000;50.698;13.322;2023-10-08T06:50:59;0.60;;;0.10;;
62903;SDS011;49000;50.698;13.322;2023-10-08T06:53:32;0.60;;;0.20;;
62903;SDS011;49000;50.698;13.322;2023-10-08T06:55:59;0.10;;;0.10;;
62903;SDS011;49000;50.698;13.322;2023-10-08T06:58:29;0.67;;;0.20;;
62903;SDS011;49000;50.698;13.322;2023-10-08T07:00:58;0.23;;;0.20;;
62903;SDS011;49000;50.698;13.322;2023-10-08T07:03:29;0.10;;;0.10;;
62903;SDS011;49000;50.698;13.322;2023-10-08T07:05:56;0.77;;;0.20;;
62903;SDS011;49000;50.698;13.322;2023-10-08T07:08:28;0.27;;;0.17;;
62903;SDS011;49000;50.698;13.322;2023-10-08T07:10:56;0.33;;;0.10;;
62903;SDS011;49000;50.698;13.322;2023-10-08T07:13:24;0.10;;;0.10;;
62903;SDS011;49000;50.698;13.322;2023-10-08T07:15:50;0.30;;;0.20;;
62903;SDS011;49000;50.698;13.322;2023-10-08T07:18:17;0.60;;;0.40;;
62903;SDS011;49000;50.698;13.322;2023-10-08T07:20:50;1.83;;;0.40;;
62903;SDS011;49000;50.698;13.322;2023-10-08T07:23:21;1.03;;;0.70;;
62903;SDS011;49000;50.698;13.322;2023-10-08T07:25:57;1.80;;;0.60;;
62903;SDS011;49000;50.698;13.322;2023-10-08T07:28:39;0.23;;;0.23;;
62903;SDS011;49000;50.698;13.322;2023-10-08T07:31:12;0.40;;;0.30;;
62903;SDS011;49000;50.698;13.322;2023-10-08T07:33:40;0.70;;;0.40;;
62903;SDS011;49000;50.698;13.322;2023-10-08T07:36:11;0.37;;;0.30;;
62903;SDS011;49000;50.698;13.322;2023-10-08T07:38:40;0.47;;;0.30;;
62903;SDS011;49000;50.698;13.322;2023-10-08T07:41:09;0.30;;;0.20;;
62903;SDS011;49000;50.698;13.322;2023-10-08T07:43:37;0.87;;;0.30;;
62903;SDS011;49000;50.698;13.322;2023-10-08T07:46:09;0.20;;;0.20;;
62903;SDS011;49000;50.698;13.322;2023-10-08T07:48:35;0.67;;;0.20;;
62903;SDS011;49000;50.698;13.322;2023-10-08T07:51:03;0.30;;;0.20;;
62903;SDS011;49000;50.698;13.322;2023-10-08T07:53:28;0.20;;;0.20;;
62903;SDS011;49000;50.698;13.322;2023-10-08T07:56:06;1.13;;;0.30;;
62903;SDS011;49000;50.698;13.322;2023-10-08T07:58:36;0.40;;;0.30;;
62903;SDS011;49000;50.698;13.322;2023-10-08T08:01:08;0.30;;;0.30;;
62903;SDS011;49000;50.698;13.322;2023-10-08T08:03:34;1.00;;;0.60;;
62903;SDS011;49000;50.698;13.322;2023-10-08T08:06:02;2.10;;;0.90;;
62903;SDS011;49000;50.698;13.322;2023-10-08T08:08:31;4.07;;;1.63;;
62903;SDS011;49000;50.698;13.322;2023-10-08T08:10:59;2.07;;;0.70;;
62903;SDS011;49000;50.698;13.322;2023-10-08T08:13:30;2.37;;;1.00;;
62903;SDS011;49000;50.698;13.322;2023-10-08T08:15:56;2.20;;;0.87;;
62903;SDS011;49000;50.698;13.322;2023-10-08T08:18:34;2.87;;;1.07;;
62903;SDS011;49000;50.698;13.322;2023-10-08T08:21:01;1.43;;;0.70;;
62903;SDS011;49000;50.698;13.322;2023-10-08T08:23:27;3.10;;;0.90;;
62903;SDS011;49000;50.698;13.322;2023-10-08T08:25:54;3.10;;;0.80;;
62903;SDS011;49000;50.698;13.322;2023-10-08T08:28:31;2.37;;;0.90;;
62903;SDS011;49000;50.698;13.322;2023-10-08T08:31:03;4.07;;;2.13;;
62903;SDS011;49000;50.698;13.322;2023-10-08T08:33:30;2.77;;;1.17;;
62903;SDS011;49000;50.698;13.322;2023-10-08T08:36:17;2.83;;;1.17;;
62903;SDS011;49000;50.698;13.322;2023-10-08T08:38:44;2.93;;;1.00;;
62903;SDS011;49000;50.698;13.322;2023-10-08T08:41:09;1.83;;;0.97;;
62903;SDS011;49000;50.698;13.322;2023-10-08T08:43:37;3.43;;;1.03;;
62903;SDS011;49000;50.698;13.322;2023-10-08T08:46:09;3.07;;;1.40;;
62903;SDS011;49000;50.698;13.322;2023-10-08T08:48:37;3.13;;;1.03;;
62903;SDS011;49000;50.698;13.322;2023-10-08T08:51:11;2.37;;;1.00;;
62903;SDS011;49000;50.698;13.322;2023-10-08T08:53:37;3.83;;;1.40;;
62903;SDS011;49000;50.698;13.322;2023-10-08T08:56:04;2.57;;;1.00;;
62903;SDS011;49000;50.698;13.322;2023-10-08T08:58:34;2.87;;;0.80;;
62903;SDS011;49000;50.698;13.322;2023-10-08T09:01:00;2.33;;;1.17;;
62903;SDS011;49000;50.698;13.322;2023-10-08T09:03:28;3.13;;;0.80;;
62903;SDS011;49000;50.698;13.322;2023-10-08T09:05:57;2.33;;;1.10;;
62903;SDS011;49000;50.698;13.322;2023-10-08T09:08:27;1.73;;;0.80;;
62903;SDS011;49000;50.698;13.322;2023-10-08T09:11:02;1.57;;;0.80;;
62903;SDS011;49000;50.698;13.322;2023-10-08T09:13:29;2.77;;;1.00;;
62903;SDS011;49000;50.698;13.322;2023-10-08T09:16:01;2.47;;;1.00;;
62903;SDS011;49000;50.698;13.322;2023-10-08T09:18:31;4.77;;;1.20;;
62903;SDS011;49000;50.698;13.322;2023-10-08T09:21:06;2.07;;;0.70;;
62903;SDS011;49000;50.698;13.322;2023-10-08T09:23:36;2.30;;;0.90;;
62903;SDS011;49000;50.698;13.322;2023-10-08T09:26:04;2.77;;;1.23;;
62903;SDS011;49000;50.698;13.322;2023-10-08T09:28:33;3.73;;;1.00;;
62903;SDS011;49000;50.698;13.322;2023-10-08T09:30:59;3.50;;;1.10;;
62903;SDS011;49000;50.698;13.322;2023-10-08T09:33:25;1.93;;;0.80;;
62903;SDS011;49000;50.698;13.322;2023-10-08T09:35:53;2.33;;;1.03;;
62903;SDS011;49000;50.698;13.322;2023-10-08T09:38:22;3.20;;;0.90;;
62903;SDS011;49000;50.698;13.322;2023-10-08T09:40:49;2.93;;;1.17;;
62903;SDS011;49000;50.698;13.322;2023-10-08T09:43:15;3.33;;;0.93;;
62903;SDS011;49000;50.698;13.322;2023-10-08T09:45:47;2.33;;;1.10;;
62903;SDS011;49000;50.698;13.322;2023-10-08T09:48:17;1.57;;;0.73;;
62903;SDS011;49000;50.698;13.322;2023-10-08T09:50:45;1.83;;;0.77;;
62903;SDS011;49000;50.698;13.322;2023-10-08T09:53:12;1.67;;;0.80;;
62903;SDS011;49000;50.698;13.322;2023-10-08T09:55:59;1.47;;;0.80;;
62903;SDS011;49000;50.698;13.322;2023-10-08T09:58:31;4.80;;;1.00;;
62903;SDS011;49000;50.698;13.322;2023-10-08T10:00:57;1.57;;;0.73;;
62903;SDS011;49000;50.698;13.322;2023-10-08T10:03:24;3.00;;;1.03;;
62903;SDS011;49000;50.698;13.322;2023-10-08T10:05:51;0.60;;;0.60;;
62903;SDS011;49000;50.698;13.322;2023-10-08T10:08:17;2.57;;;0.90;;
62903;SDS011;49000;50.698;13.322;2023-10-08T10:10:45;1.90;;;0.90;;
62903;SDS011;49000;50.698;13.322;2023-10-08T10:13:13;1.97;;;0.90;;
62903;SDS011;49000;50.698;13.322;2023-10-08T10:15:42;2.23;;;1.00;;
62903;SDS011;49000;50.698;13.322;2023-10-08T10:21:00;2.10;;;0.97;;
62903;SDS011;49000;50.698;13.322;2023-10-08T10:31:36;3.57;;;1.13;;
62903;SDS011;49000;50.698;13.322;2023-10-08T10:34:10;2.47;;;1.10;;
62903;SDS011;49000;50.698;13.322;2023-10-08T10:36:37;2.23;;;0.97;;
62903;SDS011;49000;50.698;13.322;2023-10-08T10:39:07;2.93;;;1.20;;
62903;SDS011;49000;50.698;13.322;2023-10-08T10:41:47;4.70;;;1.67;;
62903;SDS011;49000;50.698;13.322;2023-10-08T10:44:14;3.10;;;1.20;;
62903;SDS011;49000;50.698;13.322;2023-10-08T10:46:43;4.00;;;1.50;;
62903;SDS011;49000;50.698;13.322;2023-10-08T10:49:18;3.07;;;1.50;;
62903;SDS011;49000;50.698;13.322;2023-10-08T10:51:46;3.00;;;1.40;;
62903;SDS011;49000;50.698;13.322;2023-10-08T10:54:13;6.90;;;1.70;;
62903;SDS011;49000;50.698;13.322;2023-10-08T10:56:48;4.73;;;1.60;;
62903;SDS011;49000;50.698;13.322;2023-10-08T10:59:28;5.93;;;1.70;;
62903;SDS011;49000;50.698;13.322;2023-10-08T11:02:02;2.43;;;1.37;;
62903;SDS011;49000;50.698;13.322;2023-10-08T11:04:34;4.57;;;1.73;;
62903;SDS011;49000;50.698;13.322;2023-10-08T11:07:12;5.27;;;1.77;;
62903;SDS011;49000;50.698;13.322;2023-10-08T11:09:41;2.83;;;1.30;;
62903;SDS011;49000;50.698;13.322;2023-10-08T11:12:09;5.53;;;1.53;;
62903;SDS011;49000;50.698;13.322;2023-10-08T11:14:41;4.03;;;1.50;;
62903;SDS011;49000;50.698;13.322;2023-10-08T11:17:17;4.13;;;1.70;;
62903;SDS011;49000;50.698;13.322;2023-10-08T11:19:47;5.03;;;1.70;;
62903;SDS011;49000;50.698;13.322;2023-10-08T11:22:13;4.53;;;1.80;;
62903;SDS011;49000;50.698;13.322;2023-10-08T11:24:43;3.90;;;1.70;;
62903;SDS011;49000;50.698;13.322;2023-10-08T11:27:13;4.50;;;1.87;;
62903;SDS011;49000;50.698;13.322;2023-10-08T11:29:45;4.37;;;1.87;;
62903;SDS011;49000;50.698;13.322;2023-10-08T11:32:21;2.93;;;1.50;;
62903;SDS011;49000;50.698;13.322;2023-10-08T11:34:54;7.33;;;1.60;;
62903;SDS011;49000;50.698;13.322;2023-10-08T11:37:44;4.53;;;1.70;;
62903;SDS011;49000;50.698;13.322;2023-10-08T11:40:21;3.87;;;1.90;;
62903;SDS011;49000;50.698;13.322;2023-10-08T11:42:53;3.27;;;1.40;;
62903;SDS011;49000;50.698;13.322;2023-10-08T11:45:22;3.70;;;1.50;;
62903;SDS011;49000;50.698;13.322;2023-10-08T11:48:03;4.77;;;1.50;;
62903;SDS011;49000;50.698;13.322;2023-10-08T11:50:36;5.87;;;1.53;;
62903;SDS011;49000;50.698;13.322;2023-10-08T11:53:03;4.73;;;2.00;;
62903;SDS011;49000;50.698;13.322;2023-10-08T11:55:31;3.13;;;1.47;;
62903;SDS011;49000;50.698;13.322;2023-10-08T11:58:04;3.07;;;1.33;;
62903;SDS011;49000;50.698;13.322;2023-10-08T12:00:39;3.03;;;1.53;;
62903;SDS011;49000;50.698;13.322;2023-10-08T12:03:17;2.60;;;1.27;;
62903;SDS011;49000;50.698;13.322;2023-10-08T12:05:43;4.10;;;1.50;;
62903;SDS011;49000;50.698;13.322;2023-10-08T12:08:17;3.70;;;1.10;;
62903;SDS011;49000;50.698;13.322;2023-10-08T12:10:45;2.83;;;1.47;;
62903;SDS011;49000;50.698;13.322;2023-10-08T12:13:13;2.00;;;1.50;;
62903;SDS011;49000;50.698;13.322;2023-10-08T12:15:41;3.67;;;1.57;;
62903;SDS011;49000;50.698;13.322;2023-10-08T12:18:09;5.50;;;1.60;;
62903;SDS011;49000;50.698;13.322;2023-10-08T12:20:51;3.63;;;1.60;;
62903;SDS011;49000;50.698;13.322;2023-10-08T12:23:17;4.77;;;1.50;;
62903;SDS011;49000;50.698;13.322;2023-10-08T12:25:54;2.40;;;1.27;;
62903;SDS011;49000;50.698;13.322;2023-10-08T12:28:25;4.27;;;1.40;;
62903;SDS011;49000;50.698;13.322;2023-10-08T12:30:52;3.53;;;1.70;;
62903;SDS011;49000;50.698;13.322;2023-10-08T12:33:18;5.73;;;2.77;;
62903;SDS011;49000;50.698;13.322;2023-10-08T12:35:45;3.23;;;1.50;;
62903;SDS011;49000;50.698;13.322;2023-10-08T12:38:12;3.60;;;1.17;;
62903;SDS011;49000;50.698;13.322;2023-10-08T12:40:39;4.80;;;1.80;;
62903;SDS011;49000;50.698;13.322;2023-10-08T12:43:12;2.77;;;1.33;;
62903;SDS011;49000;50.698;13.322;2023-10-08T12:45:39;8.57;;;1.60;;
62903;SDS011;49000;50.698;13.322;2023-10-08T12:48:04;3.57;;;1.30;;
62903;SDS011;49000;50.698;13.322;2023-10-08T12:50:30;3.50;;;1.13;;
62903;SDS011;49000;50.698;13.322;2023-10-08T12:53:07;3.67;;;1.50;;
62903;SDS011;49000;50.698;13.322;2023-10-08T12:55:39;4.97;;;1.47;;
62903;SDS011;49000;50.698;13.322;2023-10-08T12:58:06;2.30;;;1.57;;
62903;SDS011;49000;50.698;13.322;2023-10-08T13:00:34;3.57;;;1.50;;
62903;SDS011;49000;50.698;13.322;2023-10-08T13:03:02;4.67;;;1.33;;
62903;SDS011;49000;50.698;13.322;2023-10-08T13:05:30;5.47;;;1.70;;
62903;SDS011;49000;50.698;13.322;2023-10-08T13:07:58;3.57;;;1.67;;
62903;SDS011;49000;50.698;13.322;2023-10-08T13:10:28;4.53;;;1.47;;
62903;SDS011;49000;50.698;13.322;2023-10-08T13:12:56;4.90;;;1.80;;
62903;SDS011;49000;50.698;13.322;2023-10-08T13:15:21;2.57;;;1.37;;
62903;SDS011;49000;50.698;13.322;2023-10-08T13:17:51;3.23;;;1.40;;
62903;SDS011;49000;50.698;13.322;2023-10-08T13:20:17;3.20;;;1.27;;
62903;SDS011;49000;50.698;13.322;2023-10-08T13:22:43;4.07;;;1.30;;
62903;SDS011;49000;50.698;13.322;2023-10-08T13:25:08;5.20;;;1.50;;
62903;SDS011;49000;50.698;13.322;2023-10-08T13:27:36;7.10;;;4.03;;
62903;SDS011;49000;50.698;13.322;2023-10-08T13:30:05;8.10;;;2.00;;
62903;SDS011;49000;50.698;13.322;2023-10-08T13:32:34;12.13;;;5.87;;
62903;SDS011;49000;50.698;13.322;2023-10-08T13:35:02;4.47;;;2.47;;
62903;SDS011;49000;50.698;13.322;2023-10-08T13:37:29;3.60;;;1.70;;
62903;SDS011;49000;50.698;13.322;2023-10-08T13:39:56;5.20;;;1.77;;
62903;SDS011;49000;50.698;13.322;2023-10-08T13:42:22;7.57;;;3.50;;
62903;SDS011;49000;50.698;13.322;2023-10-08T13:44:47;4.87;;;2.30;;
62903;SDS011;49000;50.698;13.322;2023-10-08T13:47:13;3.70;;;1.60;;
62903;SDS011;49000;50.698;13.322;2023-10-08T13:49:40;5.40;;;1.60;;
62903;SDS011;49000;50.698;13.322;2023-10-08T13:52:08;4.17;;;1.87;;
62903;SDS011;49000;50.698;13.322;2023-10-08T13:54:34;5.50;;;2.07;;
62903;SDS011;49000;50.698;13.322;2023-10-08T13:57:04;4.40;;;1.70;;
62903;SDS011;49000;50.698;13.322;2023-10-08T13:59:33;3.87;;;1.30;;
62903;SDS011;49000;50.698;13.322;2023-10-08T14:01:59;4.20;;;1.67;;
62903;SDS011;49000;50.698;13.322;2023-10-08T14:04:27;5.43;;;1.38;;
62903;SDS011;49000;50.698;13.322;2023-10-08T14:06:55;3.43;;;1.60;;
62903;SDS011;49000;50.698;13.322;2023-10-08T14:09:23;3.28;;;1.73;;
62903;SDS011;49000;50.698;13.322;2023-10-08T14:12:01;2.70;;;1.17;;
62903;SDS011;49000;50.698;13.322;2023-10-08T14:14:27;5.03;;;1.50;;
62903;SDS011;49000;50.698;13.322;2023-10-08T14:16:59;3.23;;;1.60;;
62903;SDS011;49000;50.698;13.322;2023-10-08T14:19:28;4.70;;;1.70;;
62903;SDS011;49000;50.698;13.322;2023-10-08T14:22:01;2.83;;;1.30;;
62903;SDS011;49000;50.698;13.322;2023-10-08T14:24:33;2.27;;;1.40;;
62903;SDS011;49000;50.698;13.322;2023-10-08T14:27:02;4.33;;;1.87;;
62903;SDS011;49000;50.698;13.322;2023-10-08T14:29:34;2.67;;;1.57;;
62903;SDS011;49000;50.698;13.322;2023-10-08T14:32:03;3.87;;;1.30;;
62903;SDS011;49000;50.698;13.322;2023-10-08T14:34:33;4.30;;;1.60;;
62903;SDS011;49000;50.698;13.322;2023-10-08T14:37:11;3.75;;;1.10;;
62903;SDS011;49000;50.698;13.322;2023-10-08T14:39:56;2.92;;;1.50;;
62903;SDS011;49000;50.698;13.322;2023-10-08T14:42:40;3.63;;;1.35;;
62903;SDS011;49000;50.698;13.322;2023-10-08T14:45:27;2.58;;;1.30;;
62903;SDS011;49000;50.698;13.322;2023-10-08T14:48:00;3.25;;;1.58;;
62903;SDS011;49000;50.698;13.322;2023-10-08T14:50:26;3.17;;;1.60;;
62903;SDS011;49000;50.698;13.322;2023-10-08T14:52:53;3.92;;;1.52;;
62903;SDS011;49000;50.698;13.322;2023-10-08T14:55:24;5.00;;;1.70;;
62903;SDS011;49000;50.698;13.322;2023-10-08T14:57:50;4.07;;;1.40;;
62903;SDS011;49000;50.698;13.322;2023-10-08T15:00:19;3.47;;;1.60;;
62903;SDS011;49000;50.698;13.322;2023-10-08T15:02:52;2.63;;;1.30;;
62903;SDS011;49000;50.698;13.322;2023-10-08T15:05:21;2.77;;;1.60;;
62903;SDS011;49000;50.698;13.322;2023-10-08T15:07:48;4.47;;;1.50;;
62903;SDS011;49000;50.698;13.322;2023-10-08T15:10:17;2.73;;;1.50;;
62903;SDS011;49000;50.698;13.322;2023-10-08T15:12:44;3.70;;;1.30;;
62903;SDS011;49000;50.698;13.322;2023-10-08T15:15:09;3.50;;;1.37;;